createdAt,value
2022-10-28T00:00:07.160Z,15.10
2022-10-28T00:02:33.889Z,15.10
2022-10-28T00:05:00.780Z,15.10
2022-10-28T00:07:28.051Z,15.20
2022-10-28T00:09:54.961Z,15.20
2022-10-28T00:12:21.684Z,15.10
2022-10-28T00:14:48.315Z,15.10
2022-10-28T00:17:15.050Z,15.10
2022-10-28T00:19:41.818Z,15.00
2022-10-28T00:22:08.494Z,15.00
2022-10-28T00:24:35.158Z,15.00
2022-10-28T00:27:01.834Z,15.00
2022-10-28T00:29:28.788Z,14.90
2022-10-28T00:31:55.840Z,14.90
2022-10-28T00:34:22.602Z,14.90
2022-10-28T00:36:49.293Z,14.90
2022-10-28T00:39:23.602Z,14.90
2022-10-28T00:41:51.780Z,14.90
2022-10-28T00:44:37.316Z,14.80
2022-10-28T00:47:04.280Z,14.70
2022-10-28T00:49:32.445Z,14.70
2022-10-28T00:52:13.111Z,14.70
2022-10-28T00:54:40.094Z,14.60
2022-10-28T00:57:10.290Z,14.60
2022-10-28T00:59:38.707Z,14.50
2022-10-28T01:02:05.867Z,14.50
2022-10-28T01:04:32.890Z,14.50
2022-10-28T01:07:01.232Z,14.40
2022-10-28T01:09:27.985Z,14.40
2022-10-28T01:12:06.497Z,14.40
2022-10-28T01:14:48.478Z,14.40
2022-10-28T01:17:15.166Z,14.40
2022-10-28T01:19:48.005Z,14.40
2022-10-28T01:22:20.948Z,14.40
2022-10-28T01:25:06.559Z,14.50
2022-10-28T01:27:33.301Z,14.40
2022-10-28T01:30:05.692Z,14.30
2022-10-28T01:32:48.250Z,14.20
2022-10-28T01:35:37.005Z,14.10
2022-10-28T01:38:14.317Z,13.90
2022-10-28T01:40:44.062Z,13.80
2022-10-28T01:43:13.398Z,13.80
2022-10-28T01:45:51.893Z,13.80
2022-10-28T01:48:21.956Z,13.70
2022-10-28T01:50:55.492Z,13.60
2022-10-28T01:53:24.556Z,13.60
2022-10-28T01:55:53.825Z,13.60
2022-10-28T01:58:23.837Z,13.50
2022-10-28T02:00:51.381Z,13.50
2022-10-28T02:03:18.604Z,13.40
2022-10-28T02:05:58.061Z,13.40
2022-10-28T02:08:38.794Z,13.50
2022-10-28T02:11:24.321Z,13.50
2022-10-28T02:13:54.126Z,13.60
2022-10-28T02:16:39.283Z,13.70
2022-10-28T02:19:14.235Z,13.70
2022-10-28T02:21:59.367Z,13.70
2022-10-28T02:24:26.043Z,13.70
2022-10-28T02:26:56.752Z,13.80
2022-10-28T02:29:28.948Z,13.80
2022-10-28T02:31:58.093Z,13.80
2022-10-28T02:34:28.493Z,13.90
2022-10-28T02:36:55.952Z,13.80
2022-10-28T02:39:26.215Z,13.80
2022-10-28T02:41:58.647Z,13.80
2022-10-28T02:44:28.633Z,13.80
2022-10-28T02:46:57.263Z,13.70
2022-10-28T02:49:25.062Z,13.80
2022-10-28T02:51:53.541Z,13.80
2022-10-28T02:54:25.794Z,13.80
2022-10-28T02:56:57.294Z,13.80
2022-10-28T02:59:24.142Z,13.80
2022-10-28T03:01:51.157Z,13.80
2022-10-28T03:04:19.777Z,13.80
2022-10-28T03:06:46.570Z,13.80
2022-10-28T03:09:13.236Z,13.70
2022-10-28T03:11:39.922Z,13.70
2022-10-28T03:14:09.541Z,13.70
2022-10-28T03:16:38.611Z,13.70
2022-10-28T03:19:06.173Z,13.70
2022-10-28T03:21:33.248Z,13.70
2022-10-28T03:24:00.015Z,13.70
2022-10-28T03:26:26.750Z,13.60
2022-10-28T03:28:53.498Z,13.60
2022-10-28T03:31:20.142Z,13.60
2022-10-28T03:33:46.850Z,13.60
2022-10-28T03:36:13.889Z,13.60
2022-10-28T03:38:40.534Z,13.70
2022-10-28T03:41:07.370Z,13.60
2022-10-28T03:43:34.125Z,13.70
2022-10-28T03:46:00.782Z,13.70
2022-10-28T03:48:27.665Z,13.70
2022-10-28T03:50:54.594Z,13.80
2022-10-28T03:53:21.680Z,13.80
2022-10-28T03:55:52.558Z,13.90
2022-10-28T03:58:19.610Z,13.90
2022-10-28T04:00:47.788Z,13.90
2022-10-28T04:03:14.514Z,13.90
2022-10-28T04:05:41.268Z,13.90
2022-10-28T04:08:08.010Z,13.90
2022-10-28T04:10:34.708Z,13.80
2022-10-28T04:13:02.162Z,13.80
2022-10-28T04:15:28.993Z,13.80
2022-10-28T04:17:55.662Z,13.80
2022-10-28T04:20:22.467Z,13.70
2022-10-28T04:22:53.207Z,13.70
2022-10-28T04:25:23.261Z,13.70
2022-10-28T04:27:50.263Z,13.70
2022-10-28T04:30:17.086Z,13.70
2022-10-28T04:32:44.245Z,13.70
2022-10-28T04:35:11.748Z,13.70
2022-10-28T04:37:39.313Z,13.70
2022-10-28T04:40:06.425Z,13.70
2022-10-28T04:42:33.278Z,13.70
2022-10-28T04:44:59.960Z,13.70
2022-10-28T04:47:26.664Z,13.70
2022-10-28T04:49:54.211Z,13.70
2022-10-28T04:52:20.876Z,13.70
2022-10-28T04:54:47.583Z,13.70
2022-10-28T04:57:14.277Z,13.60
2022-10-28T04:59:41.090Z,13.60
2022-10-28T05:02:08.066Z,13.60
2022-10-28T05:04:34.845Z,13.70
2022-10-28T05:07:01.682Z,13.60
2022-10-28T05:09:28.369Z,13.70
2022-10-28T05:11:55.050Z,13.70
2022-10-28T05:14:21.701Z,13.60
2022-10-28T05:16:48.617Z,13.60
2022-10-28T05:19:15.314Z,13.60
2022-10-28T05:21:42.114Z,13.60
2022-10-28T05:24:08.926Z,13.60
2022-10-28T05:26:35.654Z,13.70
2022-10-28T05:29:02.541Z,13.60
2022-10-28T05:31:29.194Z,13.60
2022-10-28T05:33:55.931Z,13.70
2022-10-28T05:36:22.615Z,13.70
2022-10-28T05:38:49.699Z,13.70
2022-10-28T05:41:16.553Z,13.70
2022-10-28T05:43:43.389Z,13.70
2022-10-28T05:46:10.219Z,13.70
2022-10-28T05:48:36.853Z,13.70
2022-10-28T05:51:03.787Z,13.80
2022-10-28T05:53:30.490Z,13.80
2022-10-28T05:55:57.214Z,13.90
2022-10-28T05:58:23.936Z,13.90
2022-10-28T06:00:50.677Z,14.00
2022-10-28T06:03:17.476Z,13.90
2022-10-28T06:05:44.801Z,13.90
2022-10-28T06:08:12.799Z,13.90
2022-10-28T06:10:39.955Z,13.90
2022-10-28T06:13:05.217Z,13.90
2022-10-28T06:15:32.089Z,13.90
2022-10-28T06:17:58.927Z,13.90
2022-10-28T06:20:25.719Z,14.00
2022-10-28T06:22:53.660Z,14.00
2022-10-28T06:25:21.329Z,14.10
2022-10-28T06:27:55.674Z,14.10
2022-10-28T06:30:23.366Z,14.20
2022-10-28T06:32:50.165Z,14.30
2022-10-28T06:35:17.081Z,14.40
2022-10-28T06:37:43.877Z,14.40
2022-10-28T06:40:10.570Z,14.50
2022-10-28T06:42:37.270Z,14.60
2022-10-28T06:45:04.277Z,14.60
2022-10-28T06:47:32.449Z,14.60
2022-10-28T06:49:59.263Z,14.60
2022-10-28T06:52:26.324Z,14.70
2022-10-28T06:54:59.575Z,14.70
2022-10-28T06:57:29.189Z,14.70
2022-10-28T06:59:56.206Z,14.90
2022-10-28T07:02:23.069Z,15.10
2022-10-28T07:04:49.975Z,15.30
2022-10-28T07:07:16.733Z,15.60
2022-10-28T07:09:43.716Z,15.80
2022-10-28T07:12:10.647Z,15.80
2022-10-28T07:14:37.459Z,15.70
2022-10-28T07:17:04.230Z,15.60
2022-10-28T07:19:31.067Z,15.50
2022-10-28T07:21:57.848Z,15.50
2022-10-28T07:24:24.639Z,15.40
2022-10-28T07:26:53.114Z,15.40
2022-10-28T07:29:22.320Z,15.40
2022-10-28T07:31:49.141Z,15.40
2022-10-28T07:34:15.912Z,15.40
2022-10-28T07:36:42.994Z,15.40
2022-10-28T07:39:09.869Z,15.40
2022-10-28T07:41:37.318Z,15.30
2022-10-28T07:44:04.001Z,15.20
2022-10-28T07:46:30.863Z,15.20
2022-10-28T07:48:58.080Z,15.20
2022-10-28T07:51:25.059Z,15.20
2022-10-28T07:53:51.735Z,15.30
2022-10-28T07:56:18.498Z,15.40
2022-10-28T07:58:45.454Z,15.50
2022-10-28T08:01:13.883Z,15.50
2022-10-28T08:03:40.965Z,15.60
2022-10-28T08:06:09.873Z,15.80
2022-10-28T08:08:37.486Z,15.90
2022-10-28T08:11:19.123Z,16.00
2022-10-28T08:13:46.374Z,16.00
2022-10-28T08:16:13.108Z,16.10
2022-10-28T08:18:43.356Z,16.20
2022-10-28T08:21:10.902Z,16.30
2022-10-28T08:23:38.450Z,16.40
2022-10-28T08:26:05.740Z,16.50
2022-10-28T08:28:32.471Z,16.60
2022-10-28T08:31:10.487Z,16.70
2022-10-28T08:33:38.139Z,16.70
2022-10-28T08:36:07.355Z,16.90
2022-10-28T08:38:35.374Z,17.10
2022-10-28T08:41:05.528Z,17.30
2022-10-28T08:43:57.195Z,17.60
2022-10-28T08:46:24.678Z,17.80
2022-10-28T08:48:51.688Z,17.90
2022-10-28T08:51:22.871Z,18.00
2022-10-28T08:53:55.065Z,18.00
2022-10-28T08:56:30.318Z,18.10
2022-10-28T08:59:00.282Z,18.20
2022-10-28T09:01:44.421Z,18.30
2022-10-28T09:04:24.655Z,18.30
2022-10-28T09:06:51.525Z,18.50
2022-10-28T09:09:19.643Z,18.80
2022-10-28T09:12:11.355Z,19.00
2022-10-28T09:14:47.437Z,19.80
2022-10-28T09:17:20.300Z,20.60
2022-10-28T09:19:57.353Z,20.80
2022-10-28T09:22:24.088Z,20.80
2022-10-28T09:25:06.727Z,22.00
2022-10-28T09:27:42.607Z,23.60
2022-10-28T09:30:21.566Z,25.60
2022-10-28T09:32:57.980Z,27.30
2022-10-28T09:35:25.956Z,28.90
2022-10-28T09:37:56.761Z,29.90
2022-10-28T09:40:26.040Z,30.80
2022-10-28T09:43:04.816Z,30.20
2022-10-28T09:45:33.409Z,29.30
2022-10-28T09:48:08.655Z,28.60
2022-10-28T09:50:35.403Z,27.60
2022-10-28T09:53:14.553Z,26.50
2022-10-28T09:55:41.251Z,25.40
2022-10-28T09:58:10.094Z,24.50
2022-10-28T10:00:37.320Z,23.80
2022-10-28T10:03:04.196Z,23.70
2022-10-28T10:05:32.506Z,23.90
2022-10-28T10:08:01.642Z,24.00
2022-10-28T10:10:31.569Z,24.90
2022-10-28T10:13:00.146Z,26.60
2022-10-28T10:15:36.500Z,28.10
2022-10-28T10:18:04.402Z,29.40
2022-10-28T10:20:48.210Z,30.10
2022-10-28T10:23:34.807Z,30.20
2022-10-28T10:26:06.672Z,30.60
2022-10-28T10:28:38.631Z,31.20
2022-10-28T10:31:07.523Z,31.90
2022-10-28T10:33:35.888Z,32.50
2022-10-28T10:36:02.563Z,32.70
2022-10-28T10:38:29.820Z,32.60
2022-10-28T10:40:56.524Z,32.00
2022-10-28T10:43:26.455Z,30.80
2022-10-28T10:46:00.387Z,29.90
2022-10-28T10:48:27.876Z,29.60
2022-10-28T10:50:54.941Z,29.90
2022-10-28T10:53:23.881Z,30.60
2022-10-28T10:55:52.076Z,31.40
2022-10-28T10:58:20.886Z,32.20
2022-10-28T11:00:49.530Z,32.70
2022-10-28T11:03:19.684Z,32.50
2022-10-28T11:06:05.348Z,32.00
2022-10-28T11:08:38.572Z,31.60
2022-10-28T11:11:05.323Z,30.90
2022-10-28T11:13:33.612Z,30.50
2022-10-28T11:16:01.264Z,30.10
2022-10-28T11:18:29.295Z,29.40
2022-10-28T11:21:02.859Z,28.60
2022-10-28T11:23:36.923Z,28.00
2022-10-28T11:26:05.922Z,27.40
2022-10-28T11:28:47.864Z,26.70
2022-10-28T11:31:23.873Z,26.20
2022-10-28T11:33:50.653Z,25.90
2022-10-28T11:36:20.499Z,25.40
2022-10-28T11:39:07.498Z,25.00
2022-10-28T11:41:40.421Z,24.70
2022-10-28T11:44:26.751Z,24.60
2022-10-28T11:47:05.154Z,24.50
2022-10-28T11:50:04.805Z,24.40
2022-10-28T11:52:42.738Z,24.30
2022-10-28T11:55:22.528Z,24.30
2022-10-28T11:58:15.602Z,24.30
2022-10-28T12:01:00.626Z,24.30
2022-10-28T12:03:33.198Z,24.20
2022-10-28T12:05:59.952Z,24.10
2022-10-28T12:08:35.183Z,23.90
2022-10-28T12:11:14.126Z,23.70
2022-10-28T12:13:44.135Z,23.50
2022-10-28T12:16:16.951Z,23.30
2022-10-28T12:18:59.052Z,23.20
2022-10-28T12:21:31.871Z,23.20
2022-10-28T12:23:59.246Z,23.10
2022-10-28T12:26:33.997Z,23.10
2022-10-28T12:29:02.126Z,23.20
2022-10-28T12:31:31.688Z,23.20
2022-10-28T12:34:00.188Z,23.30
2022-10-28T12:36:26.868Z,23.30
2022-10-28T12:39:02.642Z,23.40
2022-10-28T12:41:48.289Z,23.50
2022-10-28T12:44:18.744Z,23.60
2022-10-28T12:47:14.937Z,23.70
2022-10-28T12:50:00.683Z,23.80
2022-10-28T12:52:30.461Z,24.00
2022-10-28T12:55:00.253Z,24.30
2022-10-28T12:57:29.255Z,24.90
2022-10-28T12:59:55.968Z,25.70
2022-10-28T13:02:29.604Z,26.50
2022-10-28T13:04:57.210Z,27.20
2022-10-28T13:07:36.374Z,27.90
2022-10-28T13:10:15.392Z,28.40
2022-10-28T13:12:45.181Z,28.70
2022-10-28T13:15:25.691Z,28.80
2022-10-28T13:17:55.797Z,28.70
2022-10-28T13:20:38.250Z,28.60
2022-10-28T13:23:20.236Z,28.60
2022-10-28T13:26:06.092Z,28.40
2022-10-28T13:28:41.464Z,28.20
2022-10-28T13:31:08.504Z,27.80
2022-10-28T13:33:36.985Z,27.40
2022-10-28T13:36:30.122Z,27.20
2022-10-28T13:39:01.527Z,27.20
2022-10-28T13:41:40.864Z,27.20
2022-10-28T13:44:10.114Z,27.20
2022-10-28T13:46:55.480Z,27.50
2022-10-28T13:49:34.469Z,28.00
2022-10-28T13:52:03.220Z,28.60
2022-10-28T13:54:39.405Z,29.10
2022-10-28T13:57:09.042Z,29.20
2022-10-28T13:59:42.051Z,29.00
2022-10-28T14:02:35.551Z,28.80
2022-10-28T14:05:25.384Z,28.60
2022-10-28T14:08:00.115Z,28.40
2022-10-28T14:10:28.005Z,28.10
2022-10-28T14:12:58.094Z,27.80
2022-10-28T14:15:29.141Z,27.50
2022-10-28T14:18:09.746Z,27.10
2022-10-28T14:20:48.707Z,26.70
2022-10-28T14:23:21.588Z,26.10
2022-10-28T14:25:51.551Z,25.60
2022-10-28T14:28:27.495Z,25.10
2022-10-28T14:31:12.629Z,24.70
2022-10-28T14:33:44.686Z,24.30
2022-10-28T14:36:17.588Z,23.90
2022-10-28T14:38:53.635Z,23.50
2022-10-28T14:41:20.465Z,23.30
2022-10-28T14:44:00.489Z,23.00
2022-10-28T14:46:41.405Z,22.80
2022-10-28T14:49:19.342Z,22.60
2022-10-28T14:51:46.629Z,22.40
2022-10-28T14:54:19.034Z,22.30
2022-10-28T14:56:46.425Z,22.10
2022-10-28T14:59:31.420Z,22.00
2022-10-28T15:02:04.216Z,21.90
2022-10-28T15:04:31.435Z,21.70
2022-10-28T15:06:58.613Z,21.60
2022-10-28T15:09:29.527Z,21.40
2022-10-28T15:12:00.906Z,21.30
2022-10-28T15:14:41.603Z,21.30
2022-10-28T15:17:22.005Z,21.20
2022-10-28T15:19:52.850Z,21.10
2022-10-28T15:22:28.165Z,21.00
2022-10-28T15:24:59.241Z,20.90
2022-10-28T15:27:27.962Z,20.90
2022-10-28T15:29:55.840Z,20.80
2022-10-28T15:32:22.544Z,20.70
2022-10-28T15:34:49.269Z,20.60
2022-10-28T15:37:17.775Z,20.50
2022-10-28T15:39:49.305Z,20.50
2022-10-28T15:42:30.496Z,20.30
2022-10-28T15:44:57.381Z,20.10
2022-10-28T15:47:28.206Z,19.90
2022-10-28T15:50:00.552Z,19.70
2022-10-28T15:52:35.572Z,19.50
2022-10-28T15:55:04.285Z,19.40
2022-10-28T15:57:45.988Z,19.40
2022-10-28T16:00:29.216Z,19.20
2022-10-28T16:02:56.607Z,19.20
2022-10-28T16:05:32.825Z,19.20
2022-10-28T16:08:00.737Z,19.10
2022-10-28T16:10:28.612Z,19.10
2022-10-28T16:12:55.362Z,19.00
2022-10-28T16:15:22.056Z,18.90
2022-10-28T16:17:48.822Z,18.90
2022-10-28T16:20:19.731Z,19.00
2022-10-28T16:22:46.577Z,19.30
2022-10-28T16:25:14.017Z,19.40
2022-10-28T16:27:40.820Z,19.50
2022-10-28T16:30:07.822Z,19.60
2022-10-28T16:32:37.500Z,19.70
2022-10-28T16:35:05.080Z,19.80
2022-10-28T16:37:34.101Z,19.90
2022-10-28T16:40:00.987Z,19.90
2022-10-28T16:42:27.835Z,20.00
2022-10-28T16:44:54.593Z,20.00
2022-10-28T16:47:22.042Z,20.10
2022-10-28T16:49:52.564Z,20.20
2022-10-28T16:52:24.208Z,20.20
2022-10-28T16:54:51.170Z,20.20
2022-10-28T16:57:19.256Z,20.20
2022-10-28T16:59:46.296Z,20.20
2022-10-28T17:02:22.363Z,20.30
2022-10-28T17:04:49.235Z,20.30
2022-10-28T17:07:17.712Z,20.30
2022-10-28T17:09:44.655Z,20.30
2022-10-28T17:12:19.316Z,20.30
2022-10-28T17:14:46.268Z,20.20
2022-10-28T17:17:13.885Z,20.20
2022-10-28T17:19:41.646Z,20.20
2022-10-28T17:22:10.483Z,20.20
2022-10-28T17:24:38.079Z,20.20
2022-10-28T17:27:06.409Z,20.20
2022-10-28T17:29:33.307Z,20.20
2022-10-28T17:32:00.053Z,20.20
2022-10-28T17:34:27.098Z,20.20
2022-10-28T17:36:53.946Z,20.10
2022-10-28T17:39:25.722Z,20.10
2022-10-28T17:41:52.900Z,20.10
2022-10-28T17:44:19.948Z,20.10
2022-10-28T17:46:49.885Z,20.00
2022-10-28T17:49:16.737Z,19.80
2022-10-28T17:51:44.000Z,19.50
2022-10-28T17:54:11.396Z,19.30
2022-10-28T17:56:40.104Z,19.00
2022-10-28T17:59:07.610Z,18.80
2022-10-28T18:01:35.246Z,18.60
2022-10-28T18:04:06.387Z,18.50
2022-10-28T18:06:33.654Z,18.50
2022-10-28T18:09:01.196Z,18.50
2022-10-28T18:11:31.271Z,18.50
2022-10-28T18:13:58.192Z,18.50
2022-10-28T18:16:27.794Z,18.50
2022-10-28T18:18:55.462Z,18.60
2022-10-28T18:21:22.527Z,18.80
2022-10-28T18:23:53.054Z,18.90
2022-10-28T18:26:20.501Z,19.00
2022-10-28T18:28:47.503Z,19.00
2022-10-28T18:31:18.389Z,18.80
2022-10-28T18:33:45.294Z,18.70
2022-10-28T18:36:12.524Z,18.50
2022-10-28T18:38:39.617Z,18.30
2022-10-28T18:41:17.492Z,18.20
2022-10-28T18:43:44.368Z,18.10
2022-10-28T18:46:11.608Z,18.10
2022-10-28T18:48:38.897Z,18.20
2022-10-28T18:51:14.908Z,18.20
2022-10-28T18:53:46.107Z,18.30
2022-10-28T18:56:14.748Z,18.50
2022-10-28T18:58:41.946Z,18.50
2022-10-28T19:01:12.223Z,18.50
2022-10-28T19:03:39.145Z,18.50
2022-10-28T19:06:10.847Z,18.50
2022-10-28T19:08:37.709Z,18.50
2022-10-28T19:11:04.965Z,18.40
2022-10-28T19:13:35.922Z,18.40
2022-10-28T19:16:02.691Z,18.40
2022-10-28T19:18:30.421Z,18.40
2022-10-28T19:21:04.554Z,18.40
2022-10-28T19:23:32.260Z,18.40
2022-10-28T19:25:59.228Z,18.40
2022-10-28T19:28:25.983Z,18.40
2022-10-28T19:31:00.100Z,18.40
2022-10-28T19:33:27.504Z,18.40
2022-10-28T19:35:54.148Z,18.30
2022-10-28T19:38:21.439Z,18.30
2022-10-28T19:40:48.922Z,18.30
2022-10-28T19:43:15.712Z,18.20
2022-10-28T19:45:42.689Z,18.20
2022-10-28T19:48:09.863Z,18.20
2022-10-28T19:50:37.142Z,18.30
2022-10-28T19:53:05.181Z,18.30
2022-10-28T19:55:32.401Z,18.40
2022-10-28T19:57:59.501Z,18.40
2022-10-28T20:00:26.390Z,18.50
2022-10-28T20:02:53.077Z,18.50
2022-10-28T20:05:20.083Z,18.50
2022-10-28T20:07:46.900Z,18.60
2022-10-28T20:10:13.753Z,18.50
2022-10-28T20:12:40.527Z,18.50
2022-10-28T20:15:07.580Z,18.50
2022-10-28T20:17:34.371Z,18.40
2022-10-28T20:20:01.090Z,18.40
2022-10-28T20:22:27.898Z,18.40
2022-10-28T20:24:55.286Z,18.40
2022-10-28T20:27:22.290Z,18.30
2022-10-28T20:29:49.088Z,18.30
2022-10-28T20:32:17.029Z,18.30
2022-10-28T20:34:43.829Z,18.30
2022-10-28T20:37:10.564Z,18.30
2022-10-28T20:39:37.424Z,18.30
2022-10-28T20:42:04.257Z,18.30
2022-10-28T20:44:31.048Z,18.30
2022-10-28T20:46:57.844Z,18.30
2022-10-28T20:49:24.845Z,18.20
2022-10-28T20:51:51.538Z,18.10
2022-10-28T20:54:18.988Z,18.00
2022-10-28T20:56:45.699Z,18.00
2022-10-28T20:59:12.320Z,18.00
2022-10-28T21:01:40.342Z,18.00
2022-10-28T21:04:09.204Z,18.00
2022-10-28T21:06:36.393Z,18.10
2022-10-28T21:09:04.987Z,18.20
2022-10-28T21:11:31.958Z,18.20
2022-10-28T21:14:00.229Z,18.30
2022-10-28T21:16:27.797Z,18.30
2022-10-28T21:18:54.657Z,18.30
2022-10-28T21:21:22.254Z,18.30
2022-10-28T21:23:49.118Z,18.20
2022-10-28T21:26:15.977Z,18.20
2022-10-28T21:28:43.026Z,18.20
2022-10-28T21:31:11.322Z,18.20
2022-10-28T21:33:38.784Z,18.10
2022-10-28T21:36:07.070Z,18.10
2022-10-28T21:38:34.643Z,18.10
2022-10-28T21:41:02.455Z,18.10
2022-10-28T21:43:30.103Z,18.10
2022-10-28T21:45:57.050Z,18.10
2022-10-28T21:48:24.124Z,18.10
2022-10-28T21:50:54.981Z,18.00
2022-10-28T21:53:22.059Z,18.00
2022-10-28T21:55:50.018Z,17.90
2022-10-28T21:58:18.363Z,17.90
2022-10-28T22:00:45.381Z,17.90
2022-10-28T22:03:13.102Z,17.80
2022-10-28T22:05:39.930Z,17.80
2022-10-28T22:08:06.632Z,17.70
2022-10-28T22:10:33.354Z,17.70
2022-10-28T22:13:00.260Z,17.70
2022-10-28T22:15:26.984Z,17.70
2022-10-28T22:17:54.606Z,17.70
2022-10-28T22:20:21.552Z,17.70
2022-10-28T22:22:48.289Z,17.70
2022-10-28T22:25:15.184Z,17.70
2022-10-28T22:27:41.874Z,17.70
2022-10-28T22:30:08.939Z,17.70
2022-10-28T22:32:35.624Z,17.70
2022-10-28T22:35:02.400Z,17.70
2022-10-28T22:37:29.160Z,17.70
2022-10-28T22:39:55.844Z,17.70
2022-10-28T22:42:24.109Z,17.70
2022-10-28T22:44:50.871Z,17.70
2022-10-28T22:47:17.824Z,17.70
2022-10-28T22:49:44.629Z,17.60
2022-10-28T22:52:11.429Z,17.60
2022-10-28T22:54:38.153Z,17.50
2022-10-28T22:57:04.923Z,17.50
2022-10-28T22:59:31.727Z,17.50
2022-10-28T23:01:58.616Z,17.50
2022-10-28T23:04:25.580Z,17.50
2022-10-28T23:06:52.288Z,17.50
2022-10-28T23:09:20.553Z,17.50
2022-10-28T23:11:47.203Z,17.50
2022-10-28T23:14:14.050Z,17.50
2022-10-28T23:16:40.720Z,17.50
2022-10-28T23:19:07.422Z,17.50
2022-10-28T23:21:34.167Z,17.50
2022-10-28T23:24:00.886Z,17.50
2022-10-28T23:26:28.519Z,17.40
2022-10-28T23:28:56.284Z,17.40
2022-10-28T23:31:23.660Z,17.40
2022-10-28T23:33:50.747Z,17.40
2022-10-28T23:36:17.549Z,17.40
2022-10-28T23:38:44.316Z,17.30
2022-10-28T23:41:14.649Z,17.30
2022-10-28T23:43:42.708Z,17.30
2022-10-28T23:46:09.766Z,17.30
2022-10-28T23:48:36.516Z,17.30
2022-10-28T23:51:03.457Z,17.30
2022-10-28T23:53:31.016Z,17.30
2022-10-28T23:55:58.081Z,17.30
2022-10-28T23:58:24.951Z,17.30
